| Date | Time | Temp. (oF) | Dew Point (oF) | Rel. Hum. (%) | Press. (in.) | Wind Dir. | Wind Speed (mph) | Hourly Rainfall (in.) |
|
|---|---|---|---|---|---|---|---|---|---|
| 1 | 01/03 | 00:00 | 21 | 15 | 80 | 30.20 | SW | 2 | 0.00 |
| 2 | 01/02 | 23:00 | 20 | 14 | 80 | 30.20 | SSW | 3 | 0.00 |
| 3 | 01/02 | 22:00 | 21 | 14 | 77 | 30.21 | W | 2 | 0.00 |
| 4 | 01/02 | 21:00 | 23 | 14 | 71 | 30.23 | W | 0 | 0.00 |
| 5 | 01/02 | 20:00 | 25 | 16 | 69 | 30.24 | SSW | 2 | 0.00 |
| 6 | 01/02 | 19:00 | 25 | 14 | 65 | 30.25 | WSW | 0 | 0.00 |
| 7 | 01/02 | 18:00 | 28 | 15 | 59 | 30.27 | WNW | 1 | 0.00 |
| 8 | 01/02 | 17:00 | 31 | 15 | 53 | 30.25 | W | 1 | 0.00 |
| 9 | 01/02 | 16:00 | 34 | 16 | 49 | 30.24 | WSW | 2 | 0.00 |
| 10 | 01/02 | 15:00 | 34 | 16 | 48 | 30.24 | NW | 4 | 0.00 |
| 11 | 01/02 | 14:00 | 33 | 16 | 50 | 30.27 | WNW | 10 | 0.00 |
| 12 | 01/02 | 13:00 | 32 | 16 | 53 | 30.30 | WNW | 10 | 0.00 |
| 13 | 01/02 | 12:00 | 31 | 16 | 55 | 30.34 | NW | 7 | 0.00 |
| 14 | 01/02 | 11:00 | 29 | 16 | 60 | 30.40 | NW | 6 | 0.00 |
| 15 | 01/02 | 10:00 | 27 | 17 | 67 | 30.41 | WNW | 3 | 0.00 |
| 16 | 01/02 | 09:00 | 22 | 16 | 78 | 30.41 | WNW | 3 | 0.00 |
| 17 | 01/02 | 08:00 | 18 | 13 | 84 | 30.39 | SW | 5 | 0.00 |
| 18 | 01/02 | 07:00 | 18 | 13 | 81 | 30.36 | W | 3 | 0.00 |
| 19 | 01/02 | 06:00 | 20 | 14 | 79 | 30.35 | SW | 2 | 0.00 |
| 20 | 01/02 | 05:00 | 18 | 13 | 83 | 30.33 | W | 3 | 0.00 |
| 21 | 01/02 | 04:00 | 19 | 14 | 83 | 30.33 | WNW | 4 | 0.00 |
| 22 | 01/02 | 03:00 | 19 | 13 | 80 | 30.36 | SW | 1 | 0.00 |
| 23 | 01/02 | 02:00 | 19 | 13 | 78 | 30.32 | WNW | 1 | 0.00 |
| 24 | 01/02 | 01:00 | 21 | 14 | 75 | 30.32 | WNW | 3 | 0.00 |